Time;durP1;ratioP1;P1;durP2;ratioP2;P2;SDS_P1;SDS_P2;PMS_P1;PMS_P2;Temp;Humidity;BMP_temperature;BMP_pressure;BME280_temperature;BME280_humidity;BME280_pressure;Samples;Min_cycle;Max_cycle;Signal;HPM_P1;HPM_P2
2022/09/21 00:00:44;;;;;;;0.68;0.40;;;;;;;;;;7388435;19;20396;-79
2022/09/21 00:03:10;;;;;;;0.35;0.30;;;;;;;;;;7381271;19;20011;-80
2022/09/21 00:05:35;;;;;;;1.70;0.68;;;;;;;;;;7390504;19;20454;-80
2022/09/21 00:08:03;;;;;;;0.60;0.40;;;;;;;;;;7377081;19;20324;-81
2022/09/21 00:10:28;;;;;;;1.48;0.40;;;;;;;;;;7378339;19;20010;-80
2022/09/21 00:12:55;;;;;;;1.55;0.50;;;;;;;;;;7381502;19;20013;-79
2022/09/21 00:15:21;;;;;;;0.90;0.40;;;;;;;;;;7392460;19;20010;-79
2022/09/21 00:17:46;;;;;;;0.77;0.60;;;;;;;;;;7385879;19;20366;-78
2022/09/21 00:20:13;;;;;;;0.98;0.60;;;;;;;;;;7384703;19;19999;-79
2022/09/21 00:22:39;;;;;;;0.95;0.50;;;;;;;;;;7380568;19;20100;-79
2022/09/21 00:25:05;;;;;;;1.23;0.60;;;;;;;;;;7379995;19;20031;-79
2022/09/21 00:27:31;;;;;;;0.40;0.40;;;;;;;;;;7385579;19;20026;-79
2022/09/21 00:29:57;;;;;;;1.00;0.80;;;;;;;;;;7382543;19;20527;-79
2022/09/21 00:32:24;;;;;;;0.45;0.40;;;;;;;;;;7383365;19;21269;-80
2022/09/21 00:34:50;;;;;;;1.63;0.60;;;;;;;;;;7381198;19;20035;-79
2022/09/21 00:37:15;;;;;;;1.80;0.70;;;;;;;;;;7387532;19;20018;-78
2022/09/21 00:39:41;;;;;;;1.70;0.60;;;;;;;;;;7384089;19;20009;-78
2022/09/21 00:42:17;;;;;;;3.83;0.50;;;;;;;;;;7386775;19;20014;-79
2022/09/21 00:44:42;;;;;;;0.90;0.60;;;;;;;;;;7385376;19;20030;-79
2022/09/21 00:47:13;;;;;;;1.02;0.50;;;;;;;;;;7388440;19;20011;-79
2022/09/21 00:49:40;;;;;;;1.08;0.45;;;;;;;;;;7387326;19;20010;-79
2022/09/21 00:52:07;;;;;;;0.80;0.70;;;;;;;;;;7388779;19;20007;-79
2022/09/21 00:54:43;;;;;;;0.40;0.40;;;;;;;;;;7389230;19;20036;-79
2022/09/21 00:57:09;;;;;;;0.60;0.60;;;;;;;;;;7391847;19;20086;-80
2022/09/21 00:59:37;;;;;;;0.45;0.45;;;;;;;;;;7389878;19;20363;-79
2022/09/21 01:02:03;;;;;;;2.30;0.60;;;;;;;;;;7389548;19;20011;-79
2022/09/21 01:04:30;;;;;;;0.77;0.60;;;;;;;;;;7386200;19;20388;-79
2022/09/21 01:06:58;;;;;;;0.47;0.30;;;;;;;;;;7387553;19;20073;-78
2022/09/21 01:09:24;;;;;;;0.80;0.55;;;;;;;;;;7389566;19;20010;-78
2022/09/21 01:12:28;;;;;;;0.68;0.50;;;;;;;;;;7384540;19;20036;-79
2022/09/21 01:15:21;;;;;;;1.38;0.55;;;;;;;;;;7387015;19;20015;-78
2022/09/21 01:18:09;;;;;;;1.05;0.70;;;;;;;;;;7387504;19;20025;-79
2022/09/21 01:20:54;;;;;;;1.15;0.68;;;;;;;;;;7393992;19;20011;-79
2022/09/21 01:23:37;;;;;;;0.50;0.38;;;;;;;;;;7395130;19;20080;-79
2022/09/21 01:26:11;;;;;;;0.50;0.50;;;;;;;;;;7395980;19;20093;-79
2022/09/21 01:28:54;;;;;;;0.43;0.32;;;;;;;;;;7391499;19;20475;-79
2022/09/21 01:31:26;;;;;;;1.20;0.50;;;;;;;;;;7391438;19;20034;-79
2022/09/21 01:33:56;;;;;;;0.60;0.50;;;;;;;;;;7392075;19;20347;-78
2022/09/21 01:36:26;;;;;;;0.82;0.70;;;;;;;;;;7397530;19;20109;-79
2022/09/21 01:38:58;;;;;;;0.73;0.57;;;;;;;;;;7391784;19;20439;-79
2022/09/21 01:41:27;;;;;;;2.55;0.40;;;;;;;;;;7395692;19;20012;-79
2022/09/21 01:43:58;;;;;;;0.43;0.43;;;;;;;;;;7394921;19;20045;-79
2022/09/21 01:46:27;;;;;;;3.42;0.80;;;;;;;;;;7392114;19;20010;-79
2022/09/21 01:48:57;;;;;;;1.88;0.60;;;;;;;;;;7394855;19;20066;-78
2022/09/21 01:51:26;;;;;;;0.65;0.60;;;;;;;;;;7392633;19;20007;-80
2022/09/21 01:54:15;;;;;;;0.50;0.43;;;;;;;;;;7394450;19;20073;-80
2022/09/21 01:56:48;;;;;;;0.63;0.30;;;;;;;;;;7395712;19;20014;-79
2022/09/21 01:59:20;;;;;;;1.30;0.88;;;;;;;;;;7388788;19;20019;-81
2022/09/21 02:01:54;;;;;;;0.43;0.40;;;;;;;;;;7383887;19;21229;-80
2022/09/21 02:04:20;;;;;;;0.52;0.35;;;;;;;;;;7390637;19;20018;-79
2022/09/21 02:06:47;;;;;;;1.63;0.57;;;;;;;;;;7392461;19;20006;-79
2022/09/21 02:09:13;;;;;;;1.52;0.50;;;;;;;;;;7389549;19;20077;-79
2022/09/21 02:11:41;;;;;;;1.33;0.63;;;;;;;;;;7386951;19;20022;-80
2022/09/21 02:14:10;;;;;;;0.50;0.50;;;;;;;;;;7394131;19;20475;-79
2022/09/21 02:16:47;;;;;;;1.45;0.73;;;;;;;;;;7385138;19;20017;-79
2022/09/21 02:19:20;;;;;;;0.30;0.30;;;;;;;;;;7388766;19;20475;-80
2022/09/21 02:22:12;;;;;;;0.60;0.32;;;;;;;;;;7388841;19;20467;-79
2022/09/21 02:24:42;;;;;;;0.40;0.40;;;;;;;;;;7393118;19;20006;-79
2022/09/21 02:27:28;;;;;;;1.20;0.50;;;;;;;;;;7389578;19;20492;-79
2022/09/21 02:30:18;;;;;;;0.30;0.30;;;;;;;;;;7385059;19;20022;-80
2022/09/21 02:32:59;;;;;;;1.17;0.50;;;;;;;;;;7385368;19;20489;-79
2022/09/21 02:35:41;;;;;;;2.13;0.57;;;;;;;;;;7383144;19;20478;-78
2022/09/21 02:38:25;;;;;;;0.20;0.20;;;;;;;;;;7382560;19;20070;-80
2022/09/21 02:41:08;;;;;;;1.05;0.52;;;;;;;;;;7392030;19;20007;-79
2022/09/21 02:43:40;;;;;;;0.57;0.45;;;;;;;;;;7387979;19;20122;-79
2022/09/21 02:46:13;;;;;;;0.82;0.50;;;;;;;;;;7394324;19;20074;-78
2022/09/21 02:48:49;;;;;;;2.13;0.57;;;;;;;;;;7386415;19;20013;-79
2022/09/21 02:51:24;;;;;;;0.50;0.50;;;;;;;;;;7375561;19;20074;-79
2022/09/21 02:53:52;;;;;;;0.85;0.60;;;;;;;;;;7391124;19;20410;-79
2022/09/21 02:56:18;;;;;;;0.75;0.52;;;;;;;;;;7384469;19;20446;-79
2022/09/21 02:58:53;;;;;;;0.55;0.50;;;;;;;;;;7391646;19;20015;-79
2022/09/21 03:01:20;;;;;;;2.20;0.50;;;;;;;;;;7392739;19;20019;-79
2022/09/21 03:03:47;;;;;;;0.82;0.40;;;;;;;;;;7388018;19;20017;-79
2022/09/21 03:06:12;;;;;;;1.13;0.50;;;;;;;;;;7381849;19;20010;-82
2022/09/21 03:08:38;;;;;;;0.60;0.40;;;;;;;;;;7387226;19;20359;-78
2022/09/21 03:11:03;;;;;;;0.70;0.47;;;;;;;;;;7383821;19;20011;-79
2022/09/21 03:13:29;;;;;;;1.60;0.55;;;;;;;;;;7381653;19;20002;-78
2022/09/21 03:15:59;;;;;;;0.93;0.50;;;;;;;;;;7382862;19;20050;-79
2022/09/21 03:18:25;;;;;;;1.25;1.02;;;;;;;;;;7389758;19;20003;-78
2022/09/21 03:20:51;;;;;;;0.52;0.38;;;;;;;;;;7377027;19;20031;-79
2022/09/21 03:23:16;;;;;;;0.40;0.40;;;;;;;;;;7393956;19;20011;-80
2022/09/21 03:25:45;;;;;;;1.73;0.60;;;;;;;;;;7382046;19;20031;-79
2022/09/21 03:28:12;;;;;;;0.68;0.40;;;;;;;;;;7384233;19;20353;-78
2022/09/21 03:30:37;;;;;;;0.50;0.50;;;;;;;;;;7386115;19;20108;-79
2022/09/21 03:33:04;;;;;;;0.75;0.40;;;;;;;;;;7390459;19;20007;-78
2022/09/21 03:35:29;;;;;;;0.47;0.35;;;;;;;;;;7391182;19;20358;-78
2022/09/21 03:37:55;;;;;;;0.38;0.28;;;;;;;;;;7385343;19;20006;-78
2022/09/21 03:40:21;;;;;;;0.30;0.30;;;;;;;;;;7380108;19;20358;-77
2022/09/21 03:42:46;;;;;;;0.32;0.32;;;;;;;;;;7386583;19;20405;-88
2022/09/21 03:45:12;;;;;;;0.28;0.22;;;;;;;;;;7385723;19;20036;-81
2022/09/21 03:47:38;;;;;;;0.50;0.45;;;;;;;;;;7387901;19;20030;-80
2022/09/21 03:50:04;;;;;;;0.30;0.30;;;;;;;;;;7386289;19;20007;-80
2022/09/21 03:52:30;;;;;;;0.20;0.20;;;;;;;;;;7384464;19;20010;-80
2022/09/21 03:54:55;;;;;;;0.30;0.30;;;;;;;;;;7389197;19;20010;-79
2022/09/21 03:57:21;;;;;;;0.40;0.40;;;;;;;;;;7395569;19;20033;-80
2022/09/21 03:59:46;;;;;;;0.38;0.38;;;;;;;;;;7391023;19;20013;-80
2022/09/21 04:02:12;;;;;;;0.60;0.43;;;;;;;;;;7394932;19;20041;-80
2022/09/21 04:04:38;;;;;;;0.88;0.52;;;;;;;;;;7382779;19;20002;-79
2022/09/21 04:07:03;;;;;;;0.38;0.38;;;;;;;;;;7391415;19;20332;-79
2022/09/21 04:09:29;;;;;;;0.80;0.40;;;;;;;;;;7385536;19;20014;-80
2022/09/21 04:11:54;;;;;;;1.30;0.60;;;;;;;;;;7390216;19;20823;-79
2022/09/21 04:14:21;;;;;;;0.50;0.50;;;;;;;;;;7392475;19;19999;-81
2022/09/21 04:16:46;;;;;;;0.43;0.43;;;;;;;;;;7394247;19;20069;-80
2022/09/21 04:19:11;;;;;;;0.50;0.50;;;;;;;;;;7392917;19;20007;-80
2022/09/21 04:21:37;;;;;;;1.23;0.50;;;;;;;;;;7386373;19;20644;-80
2022/09/21 04:24:03;;;;;;;1.05;0.50;;;;;;;;;;7388518;19;20096;-79
2022/09/21 04:26:30;;;;;;;0.77;0.50;;;;;;;;;;7388811;19;20010;-85
2022/09/21 04:28:56;;;;;;;1.17;0.40;;;;;;;;;;7386237;19;20006;-79
2022/09/21 04:31:23;;;;;;;0.63;0.43;;;;;;;;;;7388399;19;20028;-79
2022/09/21 04:33:50;;;;;;;1.38;0.70;;;;;;;;;;7391317;19;20006;-81
2022/09/21 04:36:26;;;;;;;1.05;0.52;;;;;;;;;;7392043;19;20025;-81
2022/09/21 04:38:51;;;;;;;0.65;0.52;;;;;;;;;;7388792;19;20016;-80
2022/09/21 04:41:17;;;;;;;1.23;0.45;;;;;;;;;;7390042;19;20070;-80
2022/09/21 04:43:47;;;;;;;2.05;0.70;;;;;;;;;;7390739;19;20013;-81
2022/09/21 04:46:15;;;;;;;0.82;0.52;;;;;;;;;;7390824;19;20381;-80
2022/09/21 04:48:41;;;;;;;0.43;0.40;;;;;;;;;;7386721;19;20023;-80
2022/09/21 04:51:07;;;;;;;0.50;0.50;;;;;;;;;;7390461;19;20096;-81
2022/09/21 04:53:37;;;;;;;0.40;0.40;;;;;;;;;;7392685;19;20339;-79
2022/09/21 04:56:04;;;;;;;1.40;0.60;;;;;;;;;;7390837;19;20003;-78
2022/09/21 04:58:30;;;;;;;0.55;0.47;;;;;;;;;;7393198;19;20039;-78
2022/09/21 05:00:55;;;;;;;1.45;0.52;;;;;;;;;;7390662;19;20002;-78
2022/09/21 05:03:22;;;;;;;0.80;0.55;;;;;;;;;;7377993;19;20350;-77
2022/09/21 05:05:51;;;;;;;2.55;0.68;;;;;;;;;;7384292;19;20015;-77
2022/09/21 05:10:01;;;;;;;0.40;0.40;;;;;;;;;;7387015;19;20113;-78
2022/09/21 05:11:03;;;;;;;1.00;0.57;;;;;;;;;;7379260;19;20078;-77
2022/09/21 05:13:28;;;;;;;1.80;0.40;;;;;;;;;;7386279;19;20014;-79
2022/09/21 05:15:54;;;;;;;0.85;0.65;;;;;;;;;;7381474;19;20006;-78
2022/09/21 05:18:19;;;;;;;1.48;0.73;;;;;;;;;;7384560;19;20482;-77
2022/09/21 05:20:44;;;;;;;1.20;0.75;;;;;;;;;;7381227;19;20002;-78
2022/09/21 05:23:10;;;;;;;4.55;0.80;;;;;;;;;;7386268;19;20123;-77
2022/09/21 05:25:35;;;;;;;7.35;0.82;;;;;;;;;;7382340;19;20031;-78
2022/09/21 05:28:00;;;;;;;1.65;0.82;;;;;;;;;;7390299;19;20013;-79
2022/09/21 05:30:26;;;;;;;2.17;0.95;;;;;;;;;;7387713;19;20466;-79
2022/09/21 05:33:00;;;;;;;4.20;1.15;;;;;;;;;;7390687;19;20031;-78
2022/09/21 05:35:39;;;;;;;0.82;0.80;;;;;;;;;;7392020;19;20013;-79
2022/09/21 05:38:12;;;;;;;1.38;0.68;;;;;;;;;;7389843;19;20014;-82
2022/09/21 05:40:37;;;;;;;0.40;0.40;;;;;;;;;;7386526;19;20003;-76
2022/09/21 05:43:03;;;;;;;0.82;0.77;;;;;;;;;;7389556;19;20009;-78
2022/09/21 05:45:29;;;;;;;1.50;1.40;;;;;;;;;;7385582;19;20018;-78
2022/09/21 05:48:08;;;;;;;2.85;1.13;;;;;;;;;;7388652;19;20608;-78
2022/09/21 05:51:02;;;;;;;1.08;0.82;;;;;;;;;;7386976;19;20018;-78
2022/09/21 05:53:46;;;;;;;1.35;0.90;;;;;;;;;;7388294;19;20455;-78
2022/09/21 05:56:39;;;;;;;1.45;0.90;;;;;;;;;;7391346;19;20007;-78
2022/09/21 05:59:43;;;;;;;0.90;0.57;;;;;;;;;;7389958;19;20361;-78
2022/09/21 06:02:44;;;;;;;1.00;0.68;;;;;;;;;;7388129;19;20001;-77
2022/09/21 06:05:11;;;;;;;2.00;0.60;;;;;;;;;;7392773;19;20014;-78
2022/09/21 06:07:37;;;;;;;0.90;0.80;;;;;;;;;;7398244;19;20339;-78
2022/09/21 06:10:02;;;;;;;3.35;0.98;;;;;;;;;;7394869;19;20007;-78
2022/09/21 06:12:28;;;;;;;1.42;1.05;;;;;;;;;;7397620;19;20355;-77
2022/09/21 06:14:55;;;;;;;3.08;1.40;;;;;;;;;;7397167;19;20009;-77
2022/09/21 06:17:21;;;;;;;4.30;1.63;;;;;;;;;;7393727;19;20369;-78
2022/09/21 06:19:46;;;;;;;1.65;1.13;;;;;;;;;;7394701;19;20393;-77
2022/09/21 06:22:11;;;;;;;1.38;0.88;;;;;;;;;;7391969;19;20299;-78
2022/09/21 06:24:36;;;;;;;2.25;1.08;;;;;;;;;;7396954;19;20018;-78
2022/09/21 06:27:02;;;;;;;1.35;0.85;;;;;;;;;;7394830;19;20703;-78
2022/09/21 06:29:27;;;;;;;1.65;1.17;;;;;;;;;;7392339;19;20007;-77
2022/09/21 06:31:52;;;;;;;1.88;1.10;;;;;;;;;;7390401;19;19995;-77
2022/09/21 06:34:18;;;;;;;2.20;1.27;;;;;;;;;;7386737;19;20010;-78
2022/09/21 06:36:44;;;;;;;2.55;1.30;;;;;;;;;;7391132;19;20003;-77
2022/09/21 06:39:10;;;;;;;5.68;1.73;;;;;;;;;;7389002;19;20471;-78
2022/09/21 06:41:35;;;;;;;2.78;1.30;;;;;;;;;;7390562;19;20082;-77
2022/09/21 06:44:01;;;;;;;5.68;1.40;;;;;;;;;;7389420;19;20039;-77
2022/09/21 06:46:26;;;;;;;4.35;1.30;;;;;;;;;;7387869;19;20067;-80
2022/09/21 06:48:51;;;;;;;2.65;1.55;;;;;;;;;;7387044;19;20062;-79
2022/09/21 06:51:19;;;;;;;2.00;1.08;;;;;;;;;;7379091;19;20023;-78
2022/09/21 06:53:45;;;;;;;3.00;1.30;;;;;;;;;;7388986;19;20066;-77
2022/09/21 06:56:11;;;;;;;1.50;1.10;;;;;;;;;;7390471;19;20045;-77
2022/09/21 06:58:37;;;;;;;1.40;1.20;;;;;;;;;;7383716;19;20085;-78
2022/09/21 07:01:04;;;;;;;6.53;1.00;;;;;;;;;;7381064;19;21182;-77
2022/09/21 07:03:30;;;;;;;3.25;0.95;;;;;;;;;;7387372;19;20028;-77
2022/09/21 07:05:55;;;;;;;1.80;1.00;;;;;;;;;;7384067;19;20017;-78
2022/09/21 07:08:22;;;;;;;1.30;0.90;;;;;;;;;;7390878;19;20011;-77
2022/09/21 07:10:47;;;;;;;3.30;1.00;;;;;;;;;;7379739;19;20007;-79
2022/09/21 07:13:12;;;;;;;1.92;1.08;;;;;;;;;;7387627;19;20011;-79
2022/09/21 07:15:38;;;;;;;1.55;0.98;;;;;;;;;;7385197;19;20006;-78
2022/09/21 07:18:11;;;;;;;2.38;1.33;;;;;;;;;;7386631;19;20021;-79
2022/09/21 07:20:36;;;;;;;2.10;1.30;;;;;;;;;;7382424;19;20114;-78
2022/09/21 07:23:09;;;;;;;3.13;1.17;;;;;;;;;;7388019;19;20026;-78
2022/09/21 07:25:35;;;;;;;1.00;1.00;;;;;;;;;;7389578;19;19998;-78
2022/09/21 07:28:01;;;;;;;2.22;1.40;;;;;;;;;;7392595;19;20353;-78
2022/09/21 07:30:26;;;;;;;2.63;1.33;;;;;;;;;;7389417;19;20014;-78
2022/09/21 07:32:51;;;;;;;3.13;1.58;;;;;;;;;;7393122;19;20006;-78
2022/09/21 07:35:18;;;;;;;1.60;1.30;;;;;;;;;;7395160;19;20013;-78
2022/09/21 07:37:43;;;;;;;4.10;1.63;;;;;;;;;;7397043;19;20029;-78
2022/09/21 07:40:09;;;;;;;1.90;1.40;;;;;;;;;;7392290;19;20011;-78
2022/09/21 07:42:34;;;;;;;1.50;1.40;;;;;;;;;;7393233;19;19999;-78
2022/09/21 07:45:00;;;;;;;2.28;1.50;;;;;;;;;;7393867;19;19990;-79
2022/09/21 07:47:26;;;;;;;2.05;1.40;;;;;;;;;;7395187;19;20013;-78
2022/09/21 07:49:52;;;;;;;4.07;1.60;;;;;;;;;;7392423;19;20014;-79
2022/09/21 07:52:18;;;;;;;2.92;1.30;;;;;;;;;;7392462;19;20465;-79
2022/09/21 07:54:43;;;;;;;1.13;1.02;;;;;;;;;;7394123;19;20006;-79
2022/09/21 07:59:57;;;;;;;2.40;1.33;;;;;;;;;;7394383;19;20355;-79
2022/09/21 08:02:22;;;;;;;1.73;1.30;;;;;;;;;;7394685;19;20015;-79
2022/09/21 08:04:48;;;;;;;2.20;1.20;;;;;;;;;;7392500;19;20009;-79
2022/09/21 08:07:13;;;;;;;4.20;1.30;;;;;;;;;;7393016;19;20415;-79
2022/09/21 08:09:39;;;;;;;2.60;1.58;;;;;;;;;;7390275;19;20006;-78
2022/09/21 08:12:05;;;;;;;1.98;1.30;;;;;;;;;;7391836;19;20029;-78
2022/09/21 08:14:30;;;;;;;2.30;1.38;;;;;;;;;;7392468;19;20608;-79
2022/09/21 08:16:55;;;;;;;1.92;1.27;;;;;;;;;;7395916;19;19987;-79
2022/09/21 08:19:24;;;;;;;1.23;1.13;;;;;;;;;;7391821;19;20002;-79
2022/09/21 08:21:50;;;;;;;2.50;1.23;;;;;;;;;;7385308;19;20458;-79
2022/09/21 08:24:15;;;;;;;1.13;0.95;;;;;;;;;;7386459;19;20010;-78
2022/09/21 08:26:41;;;;;;;2.25;1.00;;;;;;;;;;7386078;19;20419;-79
2022/09/21 08:29:07;;;;;;;1.05;0.82;;;;;;;;;;7384309;19;20538;-78
2022/09/21 08:31:32;;;;;;;2.80;1.08;;;;;;;;;;7387819;19;20077;-78
2022/09/21 08:33:58;;;;;;;2.20;1.10;;;;;;;;;;7389180;19;20007;-78
2022/09/21 08:36:24;;;;;;;2.65;1.08;;;;;;;;;;7389171;19;20014;-78
2022/09/21 08:38:49;;;;;;;1.10;0.80;;;;;;;;;;7388722;19;20031;-79
2022/09/21 08:41:34;;;;;;;1.75;1.02;;;;;;;;;;7385965;19;20010;-78
2022/09/21 08:44:06;;;;;;;2.03;0.70;;;;;;;;;;7391363;19;20002;-78
2022/09/21 08:46:35;;;;;;;2.53;1.00;;;;;;;;;;7393110;19;20014;-80
2022/09/21 08:49:15;;;;;;;4.28;1.00;;;;;;;;;;7392101;19;20014;-77
2022/09/21 08:51:53;;;;;;;2.05;0.77;;;;;;;;;;7389138;19;20078;-79
2022/09/21 08:54:33;;;;;;;3.38;0.90;;;;;;;;;;7387859;19;20007;-77
2022/09/21 08:56:59;;;;;;;0.70;0.70;;;;;;;;;;7389764;19;20006;-78
2022/09/21 08:59:24;;;;;;;2.85;0.77;;;;;;;;;;7392494;19;20339;-77
2022/09/21 09:02:00;;;;;;;0.82;0.70;;;;;;;;;;7387635;19;20010;-78
2022/09/21 09:04:34;;;;;;;0.82;0.70;;;;;;;;;;7386941;19;20014;-78
2022/09/21 09:07:24;;;;;;;1.45;0.70;;;;;;;;;;7387412;19;20040;-77
2022/09/21 09:09:56;;;;;;;1.13;0.77;;;;;;;;;;7380963;19;20011;-77
2022/09/21 09:12:42;;;;;;;1.20;0.60;;;;;;;;;;7385576;19;20003;-78
2022/09/21 09:15:22;;;;;;;0.55;0.55;;;;;;;;;;7383936;19;20014;-78
2022/09/21 09:18:11;;;;;;;0.68;0.60;;;;;;;;;;7382146;19;20466;-79
2022/09/21 09:20:39;;;;;;;1.40;0.60;;;;;;;;;;7385810;19;19990;-78
2022/09/21 09:23:25;;;;;;;1.20;0.70;;;;;;;;;;7378862;19;20025;-78
2022/09/21 09:25:55;;;;;;;0.82;0.60;;;;;;;;;;7383223;19;20006;-78
2022/09/21 09:28:49;;;;;;;2.25;0.60;;;;;;;;;;7380446;19;20486;-78
2022/09/21 09:31:26;;;;;;;0.77;0.50;;;;;;;;;;7385129;19;20018;-79
2022/09/21 09:34:00;;;;;;;2.83;0.55;;;;;;;;;;7387531;19;21530;-78
2022/09/21 09:36:31;;;;;;;0.43;0.32;;;;;;;;;;7387943;19;20010;-79
2022/09/21 09:39:03;;;;;;;1.02;0.50;;;;;;;;;;7386219;19;20023;-79
2022/09/21 09:41:59;;;;;;;0.40;0.40;;;;;;;;;;7391297;19;20021;-78
2022/09/21 09:44:37;;;;;;;0.77;0.47;;;;;;;;;;7394526;19;20018;-78
2022/09/21 09:47:12;;;;;;;0.68;0.40;;;;;;;;;;7395319;19;20021;-77
2022/09/21 09:49:37;;;;;;;0.55;0.50;;;;;;;;;;7394613;19;20017;-79
2022/09/21 09:52:04;;;;;;;0.55;0.52;;;;;;;;;;7391481;19;20011;-78
2022/09/21 09:54:33;;;;;;;0.43;0.40;;;;;;;;;;7394810;19;20015;-77
2022/09/21 09:57:02;;;;;;;1.38;0.60;;;;;;;;;;7394384;19;20066;-78
2022/09/21 09:59:38;;;;;;;1.90;0.30;;;;;;;;;;7389912;19;20031;-78
2022/09/21 10:02:25;;;;;;;0.55;0.50;;;;;;;;;;7390915;19;20007;-78
2022/09/21 10:05:02;;;;;;;0.38;0.38;;;;;;;;;;7393378;19;20010;-78
2022/09/21 10:07:44;;;;;;;0.63;0.50;;;;;;;;;;7392986;19;20003;-78
2022/09/21 10:10:33;;;;;;;0.77;0.28;;;;;;;;;;7390648;19;20066;-78
2022/09/21 10:13:20;;;;;;;0.32;0.30;;;;;;;;;;7389412;19;20454;-78
2022/09/21 10:15:51;;;;;;;1.30;0.30;;;;;;;;;;7392116;19;20452;-78
2022/09/21 10:18:22;;;;;;;1.25;0.30;;;;;;;;;;7392763;19;20287;-78
2022/09/21 10:20:54;;;;;;;0.40;0.30;;;;;;;;;;7392531;19;20118;-78
2022/09/21 10:23:19;;;;;;;2.00;0.38;;;;;;;;;;7395421;19;20012;-78
2022/09/21 10:25:53;;;;;;;3.03;1.00;;;;;;;;;;7396946;19;20003;-78
2022/09/21 10:28:21;;;;;;;1.05;0.40;;;;;;;;;;7395192;19;20006;-79
2022/09/21 10:30:47;;;;;;;1.27;0.40;;;;;;;;;;7397012;19;20007;-78
2022/09/21 10:33:20;;;;;;;1.30;0.47;;;;;;;;;;7395702;19;20002;-79
2022/09/21 10:35:51;;;;;;;0.47;0.40;;;;;;;;;;7396266;19;19998;-79
2022/09/21 10:38:19;;;;;;;0.98;0.40;;;;;;;;;;7396782;19;20002;-78
2022/09/21 10:40:46;;;;;;;0.50;0.30;;;;;;;;;;7395253;19;20023;-79
2022/09/21 10:43:24;;;;;;;1.90;0.90;;;;;;;;;;7392146;19;20023;-78
2022/09/21 10:45:55;;;;;;;2.15;1.10;;;;;;;;;;7400181;19;20025;-78
2022/09/21 10:48:22;;;;;;;1.02;0.63;;;;;;;;;;7398257;19;19998;-78
2022/09/21 10:50:49;;;;;;;0.95;0.60;;;;;;;;;;7395426;19;20010;-79
2022/09/21 10:53:29;;;;;;;0.50;0.50;;;;;;;;;;7395463;19;19999;-80
2022/09/21 10:56:14;;;;;;;0.47;0.38;;;;;;;;;;7394417;19;20078;-80
2022/09/21 10:59:00;;;;;;;0.73;0.35;;;;;;;;;;7395272;19;20031;-79
2022/09/21 11:01:28;;;;;;;0.30;0.17;;;;;;;;;;7394526;19;20003;-82
2022/09/21 11:04:12;;;;;;;0.90;0.30;;;;;;;;;;7392960;19;19999;-79
2022/09/21 11:06:44;;;;;;;0.20;0.20;;;;;;;;;;7390601;19;20387;-77
2022/09/21 11:09:28;;;;;;;2.08;0.40;;;;;;;;;;7392542;19;20031;-77
2022/09/21 11:12:06;;;;;;;1.38;0.20;;;;;;;;;;7392061;19;20070;-78
2022/09/21 11:14:44;;;;;;;3.85;0.30;;;;;;;;;;7397280;19;20013;-77
2022/09/21 11:17:37;;;;;;;0.75;0.28;;;;;;;;;;7395274;19;20007;-77
2022/09/21 11:20:33;;;;;;;0.10;0.10;;;;;;;;;;7391006;19;20019;-77
2022/09/21 11:23:09;;;;;;;1.45;0.45;;;;;;;;;;7387937;19;20014;-78
2022/09/21 11:26:03;;;;;;;0.28;0.22;;;;;;;;;;7393014;19;20011;-78
2022/09/21 11:28:40;;;;;;;0.35;0.20;;;;;;;;;;7396821;19;20023;-78
2022/09/21 11:31:17;;;;;;;0.75;0.30;;;;;;;;;;7390717;19;20010;-78
2022/09/21 11:33:54;;;;;;;0.57;0.40;;;;;;;;;;7394467;19;20482;-78
2022/09/21 11:37:08;;;;;;;1.52;0.28;;;;;;;;;;7394971;19;20010;-79
2022/09/21 11:42:56;;;;;;;1.15;0.40;;;;;;;;;;7358739;19;20022;-79
2022/09/21 11:45:43;;;;;;;0.38;0.20;;;;;;;;;;7363357;19;20482;-80
2022/09/21 11:48:26;;;;;;;0.73;0.20;;;;;;;;;;7363505;19;20010;-80
2022/09/21 11:51:12;;;;;;;0.20;0.20;;;;;;;;;;7367869;19;20074;-79
2022/09/21 11:54:26;;;;;;;0.43;0.17;;;;;;;;;;7395934;19;20003;-80
2022/09/21 11:56:57;;;;;;;0.10;0.10;;;;;;;;;;7397278;19;20035;-79
2022/09/21 11:59:38;;;;;;;0.68;0.40;;;;;;;;;;7393342;19;20009;-80
2022/09/21 12:02:04;;;;;;;2.35;0.28;;;;;;;;;;7390561;19;20017;-80
2022/09/21 12:04:48;;;;;;;0.30;0.20;;;;;;;;;;7392767;19;20462;-80
2022/09/21 12:07:58;;;;;;;1.38;0.35;;;;;;;;;;7392895;19;20010;-80
2022/09/21 12:10:37;;;;;;;0.20;0.20;;;;;;;;;;7393234;19;20007;-79
2022/09/21 12:13:32;;;;;;;0.08;0.08;;;;;;;;;;7392978;19;20050;-80
2022/09/21 12:16:24;;;;;;;0.73;0.32;;;;;;;;;;7392535;19;20105;-79
2022/09/21 12:19:03;;;;;;;0.70;0.30;;;;;;;;;;7392938;19;19999;-79
2022/09/21 12:21:32;;;;;;;0.40;0.22;;;;;;;;;;7391514;19;19999;-80
2022/09/21 12:24:04;;;;;;;0.20;0.20;;;;;;;;;;7393145;19;20078;-80
2022/09/21 12:26:41;;;;;;;2.28;0.38;;;;;;;;;;7393493;19;20003;-80
2022/09/21 12:29:27;;;;;;;0.50;0.30;;;;;;;;;;7394177;19;19998;-79
2022/09/21 12:31:56;;;;;;;0.20;0.20;;;;;;;;;;7393000;19;20082;-81
2022/09/21 12:34:27;;;;;;;0.32;0.30;;;;;;;;;;7393996;19;20519;-81
2022/09/21 12:37:20;;;;;;;0.13;0.13;;;;;;;;;;7393342;19;20343;-80
2022/09/21 12:40:25;;;;;;;0.95;0.32;;;;;;;;;;7393095;19;20360;-79
2022/09/21 12:43:02;;;;;;;0.70;0.30;;;;;;;;;;7391939;19;20005;-79
2022/09/21 12:45:56;;;;;;;0.55;0.30;;;;;;;;;;7393043;19;20010;-79
2022/09/21 12:48:32;;;;;;;0.55;0.22;;;;;;;;;;7391208;19;19998;-79
2022/09/21 12:51:15;;;;;;;0.65;0.15;;;;;;;;;;7389790;19;20015;-79
2022/09/21 12:53:47;;;;;;;0.22;0.22;;;;;;;;;;7391449;19;20332;-79
2022/09/21 12:56:52;;;;;;;0.55;0.30;;;;;;;;;;7391245;19;20025;-79
2022/09/21 12:59:30;;;;;;;0.45;0.10;;;;;;;;;;7392476;19;20011;-79
2022/09/21 13:02:12;;;;;;;0.95;0.47;;;;;;;;;;7389946;19;20036;-80
2022/09/21 13:05:11;;;;;;;0.50;0.40;;;;;;;;;;7395580;19;19995;-79
2022/09/21 13:07:58;;;;;;;0.88;0.30;;;;;;;;;;7392072;19;20007;-80
2022/09/21 13:10:27;;;;;;;0.30;0.30;;;;;;;;;;7393339;19;20003;-80
2022/09/21 13:12:58;;;;;;;0.40;0.40;;;;;;;;;;7391678;19;20013;-79
2022/09/21 13:15:50;;;;;;;0.40;0.40;;;;;;;;;;7399264;19;20010;-79
2022/09/21 13:18:25;;;;;;;0.28;0.28;;;;;;;;;;7401588;19;19995;-80
2022/09/21 13:20:53;;;;;;;0.40;0.40;;;;;;;;;;7397265;19;20006;-80
2022/09/21 13:23:25;;;;;;;0.98;0.60;;;;;;;;;;7398740;19;20006;-80
2022/09/21 13:26:03;;;;;;;1.17;0.40;;;;;;;;;;7398342;19;19999;-79
2022/09/21 13:28:59;;;;;;;1.63;0.40;;;;;;;;;;7399813;19;20014;-80
2022/09/21 13:32:13;;;;;;;0.70;0.43;;;;;;;;;;7395915;19;20009;-80
2022/09/21 13:34:44;;;;;;;0.95;0.52;;;;;;;;;;7399565;19;19995;-77
2022/09/21 13:37:18;;;;;;;3.92;0.40;;;;;;;;;;7395840;19;20011;-79
2022/09/21 13:39:49;;;;;;;1.05;0.47;;;;;;;;;;7399543;19;20010;-80
2022/09/21 13:42:33;;;;;;;0.73;0.55;;;;;;;;;;7397232;19;19999;-79
2022/09/21 13:44:58;;;;;;;0.32;0.32;;;;;;;;;;7397905;19;20014;-80
2022/09/21 13:47:32;;;;;;;0.95;0.40;;;;;;;;;;7396505;19;20599;-80
2022/09/21 13:50:03;;;;;;;0.30;0.30;;;;;;;;;;7396991;19;20119;-79
2022/09/21 13:53:00;;;;;;;0.40;0.30;;;;;;;;;;7390857;19;20006;-80
2022/09/21 13:55:29;;;;;;;0.68;0.30;;;;;;;;;;7393606;19;20002;-79
2022/09/21 13:57:57;;;;;;;0.60;0.32;;;;;;;;;;7395257;19;20452;-80
2022/09/21 14:00:32;;;;;;;0.98;0.47;;;;;;;;;;7394457;19;20010;-81
2022/09/21 14:03:02;;;;;;;0.40;0.30;;;;;;;;;;7393392;19;20074;-80
2022/09/21 14:05:37;;;;;;;0.30;0.30;;;;;;;;;;7392947;19;20066;-81
2022/09/21 14:08:05;;;;;;;0.20;0.20;;;;;;;;;;7394307;19;20006;-81
2022/09/21 14:10:34;;;;;;;0.40;0.40;;;;;;;;;;7392329;19;20344;-81
2022/09/21 14:13:02;;;;;;;0.93;0.43;;;;;;;;;;7394465;19;20006;-80
2022/09/21 14:15:36;;;;;;;0.30;0.30;;;;;;;;;;7392308;19;20487;-81
2022/09/21 14:18:15;;;;;;;0.47;0.40;;;;;;;;;;7395203;19;20021;-78
2022/09/21 14:21:07;;;;;;;1.60;0.40;;;;;;;;;;7393531;19;20014;-77
2022/09/21 14:23:33;;;;;;;0.57;0.57;;;;;;;;;;7392895;19;20033;-77
2022/09/21 14:26:02;;;;;;;0.63;0.40;;;;;;;;;;7391853;19;20379;-79
2022/09/21 14:28:35;;;;;;;0.20;0.20;;;;;;;;;;7393739;19;20074;-81
2022/09/21 14:31:14;;;;;;;0.47;0.35;;;;;;;;;;7391227;19;20021;-80
2022/09/21 14:33:58;;;;;;;0.60;0.32;;;;;;;;;;7393449;19;20029;-81
2022/09/21 14:36:33;;;;;;;0.88;0.20;;;;;;;;;;7391706;19;20364;-77
2022/09/21 14:39:02;;;;;;;0.35;0.30;;;;;;;;;;7396906;19;20014;-78
2022/09/21 14:41:36;;;;;;;0.28;0.20;;;;;;;;;;7395896;19;20023;-78
2022/09/21 14:44:02;;;;;;;0.65;0.30;;;;;;;;;;7397433;19;20031;-78
2022/09/21 14:46:49;;;;;;;0.20;0.20;;;;;;;;;;7394900;19;20387;-77
2022/09/21 14:49:38;;;;;;;0.40;0.13;;;;;;;;;;7396639;19;20010;-78
2022/09/21 14:52:31;;;;;;;0.20;0.20;;;;;;;;;;7393783;19;20010;-78
2022/09/21 14:55:16;;;;;;;0.80;0.22;;;;;;;;;;7398760;19;19995;-81
2022/09/21 14:57:47;;;;;;;0.70;0.30;;;;;;;;;;7395924;19;19998;-80
2022/09/21 15:00:26;;;;;;;0.43;0.20;;;;;;;;;;7392268;19;20479;-80
2022/09/21 15:03:35;;;;;;;0.45;0.30;;;;;;;;;;7398159;19;20047;-80
2022/09/21 15:12:59;;;;;;;0.35;0.30;;;;;;;;;;7395172;19;20013;-81
2022/09/21 15:15:33;;;;;;;0.20;0.20;;;;;;;;;;7397685;19;19991;-81
2022/09/21 15:18:01;;;;;;;0.20;0.20;;;;;;;;;;7396788;19;20009;-81
2022/09/21 15:20:29;;;;;;;1.70;0.30;;;;;;;;;;7394188;19;20021;-81
2022/09/21 15:22:59;;;;;;;0.20;0.20;;;;;;;;;;7399253;19;19995;-81
2022/09/21 15:25:27;;;;;;;1.10;0.50;;;;;;;;;;7393280;19;20457;-81
2022/09/21 15:27:53;;;;;;;0.82;0.30;;;;;;;;;;7392700;19;20113;-81
2022/09/21 15:30:25;;;;;;;0.20;0.20;;;;;;;;;;7396752;19;20030;-81